Lr2 Pioneer — VREE7 — position and weather

sailwx.info

Track history (hours):
 
Tides and Currents Weather Stations Pressure Air Temp Water Temp Dewpoint Dewpoint Depression Visibility Wind Speed Wind Dir Waves Ship Positions

Lr2 Pioneer

Last reported at 2018-Jan-02 16:14 UTC. Time now 2018-Jan-23 13:40 UTC.
Position N 25°05' E 120°28'.
Warning: this ship's position is 20 days out of date.

Length 244 m; draft 13.6 m.

Type: Tanker. MMSI: 477114400.

Date/timePositionNaut miles runAvg speedWind from/ knotsBaromVisibWave heightAir tempDewpointWater temp
2018-Jan-02 16:14N 25°05' E 120°28'412.0
2018-Jan-02 15:54N 25°02' E 120°26'84 2.0
2017-Dec-31 21:00N 23°44' E 119°53'1 1.6
2017-Dec-31 20:30N 23°43' E 119°53'2 4.7
2017-Dec-31 20:01N 23°41' E 119°52'3 5.2
2017-Dec-31 19:30N 23°39' E 119°50'2 4.7
2017-Dec-31 19:00N 23°36' E 119°50'2 4.0
2017-Dec-31 18:31N 23°34' E 119°49'2 3.6
2017-Dec-31 18:00N 23°33' E 119°48'1 2.3
2017-Dec-31 17:30N 23°32' E 119°48'2 4.1
2017-Dec-31 17:01N 23°34' E 119°49'2 4.2
2017-Dec-31 16:31N 23°36' E 119°49'2 3.9
2017-Dec-31 16:00N 23°38' E 119°50'2 3.3
2017-Dec-31 15:31N 23°39' E 119°51'1 3.0
2017-Dec-31 15:00N 23°40' E 119°51'1 1.6
2017-Dec-31 14:30N 23°40' E 119°52'1 2.0
2017-Dec-31 13:59N 23°40' E 119°53'1 1.6
2017-Dec-31 13:30N 23°40' E 119°52'2 4.8
2017-Dec-31 13:01N 23°41' E 119°50'2 4.2
2017-Dec-31 12:30N 23°42' E 119°48'1 1.1
2017-Dec-31 12:00N 23°42' E 119°48'1 2.8
2017-Dec-31 11:31N 23°41' E 119°49'1 2.4
2017-Dec-31 11:01N 23°41' E 119°51'1 2.2
2017-Dec-31 10:30N 23°40' E 119°52'1 1.9
2017-Dec-31 10:00N 23°40' E 119°53'1 1.5
2017-Dec-31 09:30N 23°40' E 119°53'1 1.2
2017-Dec-31 09:00N 23°40' E 119°54'1 1.2
2017-Dec-31 08:31N 23°40' E 119°55'1 1.3
2017-Dec-31 08:00N 23°40' E 119°55'1 1.7
2017-Dec-31 07:31N 23°41' E 119°56'2 1.5
2017-Dec-31 06:27N 23°42' E 119°57'2 4.4
2017-Dec-31 06:01N 23°40' E 119°58'4 6.0
2017-Dec-31 05:15N 23°36' E 119°56'2 6.4
2017-Dec-31 05:00N 23°34' E 119°56'4 7.0
2017-Dec-31 04:23N 23°30' E 119°55'3 7.4
2017-Dec-31 03:59N 23°27' E 119°55'4 7.7
2017-Dec-31 03:30N 23°23' E 119°54'4 7.9
2017-Dec-31 03:00N 23°19' E 119°54'4 8.6
2017-Dec-31 02:30N 23°15' E 119°54'5 9.3
2017-Dec-31 01:58N 23°10' E 119°54'5 9.7
2017-Dec-31 01:30N 23°05' E 119°54'510.5
2017-Dec-31 01:00N 23°00' E 119°54'611.0
2017-Dec-31 00:30N 22°55' E 119°54'611.2
2017-Dec-31 00:00N 22°49' E 119°53'611.3
2017-Dec-30 23:30N 22°43' E 119°53'611.4
2017-Dec-30 23:00N 22°38' E 119°53'611.6
2017-Dec-30 22:30N 22°32' E 119°53'612.0
2017-Dec-30 22:00N 22°26' E 119°53'611.5
2017-Dec-30 21:30N 22°20' E 119°53'711.9
2017-Dec-30 20:55N 22°13' E 119°54'  
Track history (hours):
 
Tides and Currents Weather Stations Pressure Air Temp Water Temp Dewpoint Dewpoint Depression Visibility Wind Speed Wind Dir Waves Ship Positions

Lr2 Pioneer

Last reported at 2018-Jan-02 16:14 UTC. Time now 2018-Jan-23 13:40 UTC.
Position N 25°05' E 120°28'.
Warning: this ship's position is 20 days out of date.

Length 244 m; draft 13.6 m.

Type: Tanker. MMSI: 477114400.

Date/timePositionNaut miles runAvg speedWind from/ knotsBaromVisibWave heightAir tempDewpointWater temp
2018-Jan-02 16:14N 25°05' E 120°28'412.0
2018-Jan-02 15:54N 25°02' E 120°26'84 2.0
2017-Dec-31 21:00N 23°44' E 119°53'1 1.6
2017-Dec-31 20:30N 23°43' E 119°53'2 4.7
2017-Dec-31 20:01N 23°41' E 119°52'3 5.2
2017-Dec-31 19:30N 23°39' E 119°50'2 4.7
2017-Dec-31 19:00N 23°36' E 119°50'2 4.0
2017-Dec-31 18:31N 23°34' E 119°49'2 3.6
2017-Dec-31 18:00N 23°33' E 119°48'1 2.3
2017-Dec-31 17:30N 23°32' E 119°48'2 4.1
2017-Dec-31 17:01N 23°34' E 119°49'2 4.2
2017-Dec-31 16:31N 23°36' E 119°49'2 3.9
2017-Dec-31 16:00N 23°38' E 119°50'2 3.3
2017-Dec-31 15:31N 23°39' E 119°51'1 3.0
2017-Dec-31 15:00N 23°40' E 119°51'1 1.6
2017-Dec-31 14:30N 23°40' E 119°52'1 2.0
2017-Dec-31 13:59N 23°40' E 119°53'1 1.6
2017-Dec-31 13:30N 23°40' E 119°52'2 4.8
2017-Dec-31 13:01N 23°41' E 119°50'2 4.2
2017-Dec-31 12:30N 23°42' E 119°48'1 1.1
2017-Dec-31 12:00N 23°42' E 119°48'1 2.8
2017-Dec-31 11:31N 23°41' E 119°49'1 2.4
2017-Dec-31 11:01N 23°41' E 119°51'1 2.2
2017-Dec-31 10:30N 23°40' E 119°52'1 1.9
2017-Dec-31 10:00N 23°40' E 119°53'1 1.5
2017-Dec-31 09:30N 23°40' E 119°53'1 1.2
2017-Dec-31 09:00N 23°40' E 119°54'1 1.2
2017-Dec-31 08:31N 23°40' E 119°55'1 1.3
2017-Dec-31 08:00N 23°40' E 119°55'1 1.7
2017-Dec-31 07:31N 23°41' E 119°56'2 1.5
2017-Dec-31 06:27N 23°42' E 119°57'2 4.4
2017-Dec-31 06:01N 23°40' E 119°58'4 6.0
2017-Dec-31 05:15N 23°36' E 119°56'2 6.4
2017-Dec-31 05:00N 23°34' E 119°56'4 7.0
2017-Dec-31 04:23N 23°30' E 119°55'3 7.4
2017-Dec-31 03:59N 23°27' E 119°55'4 7.7
2017-Dec-31 03:30N 23°23' E 119°54'4 7.9
2017-Dec-31 03:00N 23°19' E 119°54'4 8.6
2017-Dec-31 02:30N 23°15' E 119°54'5 9.3
2017-Dec-31 01:58N 23°10' E 119°54'5 9.7
2017-Dec-31 01:30N 23°05' E 119°54'510.5
2017-Dec-31 01:00N 23°00' E 119°54'611.0
2017-Dec-31 00:30N 22°55' E 119°54'611.2
2017-Dec-31 00:00N 22°49' E 119°53'611.3
2017-Dec-30 23:30N 22°43' E 119°53'611.4
2017-Dec-30 23:00N 22°38' E 119°53'611.6
2017-Dec-30 22:30N 22°32' E 119°53'612.0
2017-Dec-30 22:00N 22°26' E 119°53'611.5
2017-Dec-30 21:30N 22°20' E 119°53'711.9
2017-Dec-30 20:55N 22°13' E 119°54'  

Dump ship's entire track history